createdAt,value
2019-04-16T00:01:34.291Z,95.80
2019-04-16T00:04:12.182Z,95.30
2019-04-16T00:07:03.122Z,94.80
2019-04-16T00:09:36.921Z,94.50
2019-04-16T00:12:20.997Z,94.00
2019-04-16T00:14:59.577Z,93.50
2019-04-16T00:17:34.067Z,93.00
2019-04-16T00:20:16.362Z,92.60
2019-04-16T00:22:53.643Z,92.40
2019-04-16T00:25:29.209Z,92.00
2019-04-16T00:28:12.184Z,91.70
2019-04-16T00:30:49.314Z,91.10
2019-04-16T00:33:24.785Z,90.80
2019-04-16T00:39:10.615Z,89.60
2019-04-16T00:41:55.458Z,88.60
2019-04-16T00:44:30.959Z,88.10
2019-04-16T00:47:09.153Z,87.20
2019-04-16T00:50:10.325Z,86.80
2019-04-16T00:52:44.043Z,86.80
2019-04-16T00:55:21.162Z,86.30
2019-04-16T00:57:56.137Z,85.60
2019-04-16T01:00:30.606Z,85.20
2019-04-16T01:03:03.492Z,84.80
2019-04-16T01:05:35.267Z,84.20
2019-04-16T01:13:56.564Z,81.10
2019-04-16T01:19:25.600Z,79.10
2019-04-16T01:22:06.079Z,77.60
2019-04-16T01:27:59.827Z,73.90
2019-04-16T01:30:31.223Z,71.80
2019-04-16T01:33:15.359Z,70.50
2019-04-16T01:39:13.606Z,69.10
2019-04-16T01:41:32.279Z,68.90
2019-04-16T01:47:04.268Z,67.50
2019-04-16T01:58:22.366Z,66.60
2019-04-16T02:03:52.740Z,66.30
2019-04-16T02:06:26.565Z,65.90
2019-04-16T02:09:04.895Z,66.00
2019-04-16T02:11:42.109Z,66.00
2019-04-16T02:14:22.336Z,65.70
2019-04-16T02:16:56.623Z,65.50
2019-04-16T02:19:42.251Z,65.40
2019-04-16T02:22:26.064Z,65.50
2019-04-16T02:30:55.181Z,65.30
2019-04-16T02:39:16.840Z,65.30
2019-04-16T02:41:59.638Z,65.50
2019-04-16T02:44:34.584Z,65.60
2019-04-16T02:47:21.955Z,65.70
2019-04-16T02:49:57.701Z,65.50
2019-04-16T02:52:36.803Z,65.30
2019-04-16T02:55:24.531Z,65.30
2019-04-16T02:58:18.943Z,65.30
2019-04-16T03:01:04.514Z,65.30
2019-04-16T03:03:44.049Z,65.50
2019-04-16T03:06:20.431Z,65.60
2019-04-16T03:09:05.567Z,65.40
2019-04-16T03:11:35.401Z,65.40
2019-04-16T03:14:07.361Z,65.30
2019-04-16T03:16:53.320Z,65.50
2019-04-16T03:19:33.868Z,65.50
2019-04-16T03:40:26.003Z,65.80
2019-04-16T03:49:01.406Z,66.30
2019-04-16T03:54:29.826Z,66.70
2019-04-16T03:57:21.166Z,66.90
2019-04-16T04:00:10.934Z,67.20
2019-04-16T04:02:40.464Z,67.30
2019-04-16T04:05:15.563Z,67.20
2019-04-16T04:10:44.494Z,67.50
2019-04-16T04:13:20.019Z,68.20
2019-04-16T04:18:52.042Z,68.60
2019-04-16T04:21:32.018Z,68.60
2019-04-16T04:24:15.767Z,69.50
2019-04-16T04:33:08.929Z,67.80
2019-04-16T04:35:38.521Z,67.70
2019-04-16T04:38:13.226Z,67.50
2019-04-16T04:40:50.611Z,67.30
2019-04-16T04:58:20.743Z,66.90
2019-04-16T05:00:55.077Z,66.90
2019-04-16T05:03:32.311Z,67.00
2019-04-16T05:06:09.389Z,66.70
2019-04-16T05:08:45.529Z,66.70
2019-04-16T05:11:31.418Z,66.70
2019-04-16T05:17:07.646Z,66.40
2019-04-16T05:23:07.732Z,66.10
2019-04-16T05:25:59.034Z,66.10
2019-04-16T05:37:25.637Z,65.30
2019-04-16T05:40:02.026Z,64.80
2019-04-16T05:42:42.818Z,64.20
2019-04-16T05:45:22.687Z,64.00
2019-04-16T05:48:02.679Z,65.30
2019-04-16T05:51:02.210Z,64.50
2019-04-16T05:53:32.402Z,63.90
2019-04-16T05:56:11.816Z,63.90
2019-04-16T05:58:46.807Z,63.40
2019-04-16T06:04:24.970Z,63.00
2019-04-16T06:06:56.961Z,63.20
2019-04-16T06:09:44.416Z,63.00
2019-04-16T06:12:16.760Z,63.00
2019-04-16T06:14:53.994Z,63.30
2019-04-16T06:17:32.139Z,63.70
2019-04-16T06:23:07.417Z,63.20
2019-04-16T06:25:43.951Z,63.10
2019-04-16T06:28:42.878Z,62.70
2019-04-16T06:31:14.738Z,62.70
2019-04-16T06:33:54.518Z,62.30
2019-04-16T06:36:30.962Z,62.50
2019-04-16T06:39:08.354Z,61.90
2019-04-16T06:41:47.671Z,61.20
2019-04-16T06:44:24.391Z,58.50
2019-04-16T06:47:05.058Z,56.00
2019-04-16T06:49:41.230Z,53.30
2019-04-16T06:52:30.416Z,53.00
2019-04-16T06:55:06.173Z,49.90
2019-04-16T06:57:53.791Z,48.40
2019-04-16T07:00:28.051Z,47.50
2019-04-16T07:03:18.936Z,46.50
2019-04-16T07:06:03.904Z,45.30
2019-04-16T07:08:54.919Z,44.60
2019-04-16T07:11:29.442Z,43.10
2019-04-16T07:14:00.619Z,43.10
2019-04-16T07:16:31.628Z,41.40
2019-04-16T07:19:01.559Z,40.20
2019-04-16T07:21:33.690Z,40.00
2019-04-16T07:24:03.608Z,40.30
2019-04-16T07:26:37.997Z,40.00
2019-04-16T07:29:15.443Z,39.60
2019-04-16T07:31:52.154Z,38.80
2019-04-16T07:34:35.159Z,38.20
2019-04-16T07:37:11.128Z,37.00
2019-04-16T07:39:46.461Z,35.90
2019-04-16T07:42:22.115Z,37.10
2019-04-16T07:45:13.013Z,35.40
2019-04-16T07:47:44.611Z,35.10
2019-04-16T07:50:16.554Z,34.10
2019-04-16T07:53:05.619Z,33.60
2019-04-16T07:55:38.438Z,32.80
2019-04-16T07:58:08.860Z,31.70
2019-04-16T08:00:41.275Z,31.80
2019-04-16T08:03:13.469Z,31.80
2019-04-16T08:05:44.740Z,31.80
2019-04-16T08:08:16.425Z,31.20
2019-04-16T08:10:48.839Z,30.90
2019-04-16T08:13:19.818Z,30.30
2019-04-16T08:15:51.117Z,30.20
2019-04-16T08:18:25.297Z,30.10
2019-04-16T08:21:01.928Z,29.80
2019-04-16T08:23:39.602Z,29.30
2019-04-16T08:26:13.778Z,29.20
2019-04-16T08:28:48.175Z,28.70
2019-04-16T08:31:20.359Z,28.90
2019-04-16T08:34:04.998Z,28.60
2019-04-16T08:36:40.793Z,28.40
2019-04-16T08:39:14.394Z,28.00
2019-04-16T08:41:52.385Z,27.80
2019-04-16T08:44:21.827Z,28.00
2019-04-16T08:46:54.823Z,27.60
2019-04-16T08:49:35.337Z,27.70
2019-04-16T08:52:10.224Z,27.90
2019-04-16T08:54:44.201Z,28.20
2019-04-16T08:57:17.513Z,29.20
2019-04-16T09:00:03.611Z,29.80
2019-04-16T09:02:58.890Z,29.90
2019-04-16T09:05:11.734Z,30.10
2019-04-16T09:07:44.751Z,30.20
2019-04-16T09:10:30.070Z,30.50
2019-04-16T09:13:04.096Z,31.20
2019-04-16T09:15:38.419Z,31.60
2019-04-16T09:18:19.487Z,32.60
2019-04-16T09:20:54.577Z,32.70
2019-04-16T09:23:27.333Z,32.80
2019-04-16T09:26:12.485Z,32.80
2019-04-16T09:28:52.202Z,32.90
2019-04-16T09:31:27.891Z,32.40
2019-04-16T09:34:06.482Z,32.30
2019-04-16T09:36:55.705Z,32.40
2019-04-16T09:39:27.701Z,31.80
2019-04-16T09:41:57.832Z,31.30
2019-04-16T09:44:35.228Z,30.70
2019-04-16T09:47:05.400Z,30.60
2019-04-16T09:49:37.604Z,30.60
2019-04-16T09:52:08.745Z,30.30
2019-04-16T09:54:41.488Z,30.20
2019-04-16T09:57:11.836Z,30.00
2019-04-16T09:59:48.467Z,30.00
2019-04-16T10:02:24.017Z,30.00
2019-04-16T10:04:54.474Z,30.20
2019-04-16T10:07:32.840Z,29.60
2019-04-16T10:10:04.178Z,29.40
2019-04-16T10:12:34.015Z,29.50
2019-04-16T10:15:05.487Z,29.40
2019-04-16T10:17:39.766Z,29.30
2019-04-16T10:20:12.839Z,29.10
2019-04-16T10:22:45.998Z,30.00
2019-04-16T10:25:21.581Z,29.70
2019-04-16T10:27:57.475Z,29.60
2019-04-16T10:30:30.347Z,29.60
2019-04-16T10:33:02.463Z,30.00
2019-04-16T10:35:33.743Z,29.90
2019-04-16T10:38:33.268Z,30.00
2019-04-16T10:41:07.611Z,30.20
2019-04-16T10:43:44.628Z,30.00
2019-04-16T10:46:43.783Z,30.30
2019-04-16T10:49:20.020Z,29.80
2019-04-16T10:52:10.235Z,29.50
2019-04-16T10:54:41.661Z,29.70
2019-04-16T10:57:38.250Z,29.70
2019-04-16T11:00:27.275Z,29.40
2019-04-16T11:03:04.684Z,29.40
2019-04-16T11:05:42.873Z,29.00
2019-04-16T11:08:18.548Z,29.30
2019-04-16T11:10:48.399Z,29.40
2019-04-16T11:13:24.816Z,28.40
2019-04-16T11:15:58.280Z,28.30
2019-04-16T11:18:28.214Z,28.20
2019-04-16T11:20:58.012Z,27.80
2019-04-16T11:23:31.220Z,27.90
2019-04-16T11:26:04.602Z,27.50
2019-04-16T11:28:37.215Z,27.60
2019-04-16T11:31:12.977Z,27.70
2019-04-16T11:33:46.567Z,27.50
2019-04-16T11:36:20.260Z,27.00
2019-04-16T11:38:58.314Z,25.90
2019-04-16T11:41:30.862Z,25.20
2019-04-16T11:44:16.797Z,25.10
2019-04-16T11:46:47.899Z,24.90
2019-04-16T11:49:23.833Z,24.60
2019-04-16T11:51:56.449Z,24.90
2019-04-16T11:54:37.587Z,24.60
2019-04-16T11:57:08.723Z,24.60
2019-04-16T11:59:42.435Z,24.20
2019-04-16T12:02:22.804Z,23.80
2019-04-16T12:04:59.319Z,23.40
2019-04-16T12:07:42.318Z,23.70
2019-04-16T12:10:27.453Z,24.10
2019-04-16T12:13:03.325Z,23.90
2019-04-16T12:15:36.416Z,23.20
2019-04-16T12:18:12.049Z,23.00
2019-04-16T12:20:50.892Z,23.30
2019-04-16T12:23:27.930Z,23.30
2019-04-16T12:26:17.590Z,22.90
2019-04-16T12:28:52.226Z,22.60
2019-04-16T12:31:38.235Z,22.40
2019-04-16T12:34:38.169Z,21.30
2019-04-16T12:37:19.386Z,21.20
2019-04-16T12:40:08.639Z,21.60
2019-04-16T12:42:56.650Z,21.60
2019-04-16T12:45:40.364Z,22.10
2019-04-16T12:48:16.638Z,22.70
2019-04-16T12:50:53.147Z,22.50
2019-04-16T12:53:24.682Z,22.20
2019-04-16T12:56:16.376Z,21.70
2019-04-16T12:58:51.952Z,20.70
2019-04-16T13:01:39.750Z,21.00
2019-04-16T13:04:30.676Z,20.60
2019-04-16T13:07:05.241Z,20.90
2019-04-16T13:09:41.309Z,20.90
2019-04-16T13:12:12.654Z,20.80
2019-04-16T13:14:59.602Z,20.90
2019-04-16T13:17:18.864Z,21.50
2019-04-16T13:19:55.544Z,21.30
2019-04-16T13:22:51.343Z,21.40
2019-04-16T13:25:26.881Z,21.40
2019-04-16T13:28:02.046Z,21.10
2019-04-16T13:30:38.990Z,20.90
2019-04-16T13:33:11.630Z,20.90
2019-04-16T13:35:42.932Z,20.60
2019-04-16T13:38:15.749Z,20.50
2019-04-16T13:40:54.204Z,20.70
2019-04-16T13:43:48.423Z,20.70
2019-04-16T13:46:20.209Z,21.10
2019-04-16T13:49:04.095Z,21.10
2019-04-16T13:51:37.911Z,21.10
2019-04-16T13:54:12.913Z,21.30
2019-04-16T13:57:06.933Z,21.30
2019-04-16T13:59:55.219Z,21.10
2019-04-16T14:02:47.751Z,21.30
2019-04-16T14:05:42.737Z,21.20
2019-04-16T14:08:15.650Z,20.90
2019-04-16T14:10:56.586Z,20.50
2019-04-16T14:13:31.764Z,20.80
2019-04-16T14:16:12.739Z,20.80
2019-04-16T14:18:44.055Z,21.00
2019-04-16T14:21:19.273Z,21.30
2019-04-16T14:23:56.335Z,21.40
2019-04-16T14:26:32.691Z,21.30
2019-04-16T14:29:07.192Z,21.20
2019-04-16T14:31:37.930Z,21.10
2019-04-16T14:34:09.403Z,21.10
2019-04-16T14:36:41.801Z,21.00
2019-04-16T14:39:16.134Z,21.00
2019-04-16T14:41:50.167Z,20.70
2019-04-16T14:44:37.512Z,20.90
2019-04-16T14:47:11.390Z,21.10
2019-04-16T14:49:42.748Z,21.30
2019-04-16T14:52:28.531Z,21.20
2019-04-16T14:55:06.460Z,21.60
2019-04-16T14:57:42.527Z,22.10
2019-04-16T15:00:19.977Z,21.50
2019-04-16T15:02:53.554Z,21.90
2019-04-16T15:05:31.191Z,21.90
2019-04-16T15:08:25.888Z,21.70
2019-04-16T15:11:32.492Z,22.00
2019-04-16T15:14:19.139Z,22.10
2019-04-16T15:16:59.303Z,22.60
2019-04-16T15:19:40.599Z,22.90
2019-04-16T15:22:22.178Z,23.30
2019-04-16T15:24:59.720Z,23.30
2019-04-16T15:28:13.210Z,22.90
2019-04-16T15:36:54.979Z,23.40
2019-04-16T15:39:51.567Z,23.60
2019-04-16T15:42:54.890Z,24.10
2019-04-16T15:45:28.884Z,23.90
2019-04-16T15:50:56.043Z,24.60
2019-04-16T15:54:00.679Z,24.90
2019-04-16T15:56:42.753Z,25.30
2019-04-16T15:59:23.495Z,25.60
2019-04-16T16:01:57.938Z,25.80
2019-04-16T16:07:24.493Z,26.50
2019-04-16T16:13:01.516Z,27.00
2019-04-16T16:15:53.265Z,27.30
2019-04-16T16:21:33.071Z,28.50
2019-04-16T16:27:25.380Z,31.70
2019-04-16T16:30:00.260Z,34.50
2019-04-16T16:32:34.222Z,36.70
2019-04-16T16:47:50.574Z,44.80
2019-04-16T16:57:29.419Z,48.20
2019-04-16T17:05:55.043Z,51.10
2019-04-16T17:08:30.183Z,51.50
2019-04-16T17:11:16.225Z,51.70
2019-04-16T17:13:40.486Z,52.30
2019-04-16T17:16:17.442Z,52.80
2019-04-16T17:18:56.923Z,53.20
2019-04-16T17:21:33.953Z,54.20
2019-04-16T17:24:07.564Z,54.90
2019-04-16T17:26:46.909Z,55.80
2019-04-16T17:29:22.346Z,56.30
2019-04-16T17:31:54.956Z,57.40
2019-04-16T17:34:39.017Z,58.00
2019-04-16T17:37:10.519Z,58.20
2019-04-16T17:39:47.737Z,58.70
2019-04-16T17:42:30.388Z,59.30
2019-04-16T17:45:18.739Z,60.00
2019-04-16T17:48:12.239Z,60.80
2019-04-16T17:53:58.226Z,61.80
2019-04-16T18:02:28.071Z,63.60
2019-04-16T18:08:56.569Z,65.10
2019-04-16T18:20:32.064Z,68.10
2019-04-16T18:35:22.104Z,69.50
2019-04-16T18:38:19.137Z,69.40
2019-04-16T18:43:45.896Z,69.90
2019-04-16T18:49:21.647Z,70.40
2019-04-16T19:22:03.545Z,76.00
2019-04-16T19:39:48.762Z,78.10
2019-04-16T21:14:50.913Z,90.10
2019-04-16T21:17:28.127Z,90.10
2019-04-16T21:20:13.403Z,90.10
2019-04-16T21:23:12.005Z,90.30
2019-04-16T21:25:57.535Z,90.20
2019-04-16T21:41:21.063Z,89.90
2019-04-16T21:44:02.745Z,90.20
2019-04-16T21:46:56.936Z,89.30
2019-04-16T21:56:08.146Z,88.50
2019-04-16T22:01:46.813Z,87.40
2019-04-16T22:04:19.505Z,87.40
2019-04-16T22:06:52.621Z,86.80
2019-04-16T22:12:26.241Z,86.30
2019-04-16T22:15:03.986Z,86.30
2019-04-16T22:17:38.673Z,86.60
2019-04-16T22:20:35.583Z,85.80
2019-04-16T22:23:11.314Z,85.50
2019-04-16T22:26:13.197Z,85.90
2019-04-16T22:29:01.793Z,85.20
2019-04-16T22:34:43.183Z,84.30
2019-04-16T22:37:23.619Z,83.90
2019-04-16T22:40:12.157Z,83.40
2019-04-16T22:43:07.060Z,82.80
2019-04-16T22:45:41.634Z,82.30
2019-04-16T22:48:21.159Z,81.80
2019-04-16T22:51:03.599Z,81.10
2019-04-16T22:56:39.302Z,80.30
2019-04-16T22:59:32.297Z,80.10
2019-04-16T23:02:00.427Z,80.00
2019-04-16T23:04:34.339Z,79.80
2019-04-16T23:07:08.743Z,79.60
2019-04-16T23:09:40.253Z,79.50
2019-04-16T23:15:06.505Z,79.60
2019-04-16T23:17:42.772Z,79.80
2019-04-16T23:20:28.491Z,80.00
2019-04-16T23:22:49.048Z,80.30
2019-04-16T23:25:27.328Z,80.60
2019-04-16T23:28:09.251Z,81.00
2019-04-16T23:30:37.248Z,81.30
2019-04-16T23:33:09.718Z,81.70
2019-04-16T23:35:44.442Z,82.20
2019-04-16T23:38:21.033Z,82.60
2019-04-16T23:41:02.981Z,83.10
2019-04-16T23:43:43.554Z,83.40
2019-04-16T23:46:38.890Z,83.90
2019-04-16T23:49:19.533Z,84.50
2019-04-16T23:54:56.652Z,85.30
2019-04-16T23:57:38.492Z,85.80
